Canton, South Dakota
Current Conditions -  °F | °C
As of 6:56 AM on Thursday 27 Nov 2014 (Local Time) from KFSD Reporting Station
Clear Clear  
Wind Chill: -5°   Ceiling: Unl
Heat Index: -5°   Visibility: 10mi
Dew Point: -10°   Wind: 0mph
Humidity: 80%   Direction: NA
Pressure: 30.47"   Gusts: NA
Location:  43.3°N, 96.59°W
Report Text: KFSD 271256Z 00000KT 10SM CLR M21/M23 A3047 RMK AO2 SLP357 T12061233
Loading
Personal Weather Stations






























Interactive Weather Map New forecast layout! Learn more

10-Day Weather Forecast

Advertisements
Track Severe Weather on mobile